createdAt,value
2018-06-08T00:00:22.090Z,0.00
2018-06-08T00:01:22.090Z,0.00
2018-06-08T00:02:22.092Z,0.00
2018-06-08T00:03:22.092Z,0.00
2018-06-08T00:04:22.094Z,0.00
2018-06-08T00:05:22.091Z,0.00
2018-06-08T00:06:22.095Z,0.00
2018-06-08T00:07:22.099Z,0.00
2018-06-08T00:08:22.098Z,0.00
2018-06-08T00:09:22.098Z,0.00
2018-06-08T00:10:22.100Z,0.00
2018-06-08T00:11:22.096Z,0.00
2018-06-08T00:12:22.105Z,0.00
2018-06-08T00:13:22.102Z,0.00
2018-06-08T00:14:22.104Z,0.00
2018-06-08T00:15:22.104Z,0.00
2018-06-08T00:16:22.104Z,0.00
2018-06-08T00:17:22.108Z,0.00
2018-06-08T00:18:22.103Z,0.00
2018-06-08T00:19:22.106Z,0.00
2018-06-08T00:20:22.111Z,0.00
2018-06-08T00:21:22.110Z,0.00
2018-06-08T00:22:22.115Z,0.00
2018-06-08T00:23:22.111Z,0.00
2018-06-08T00:24:22.110Z,0.00
2018-06-08T00:25:22.117Z,0.00
2018-06-08T00:26:22.114Z,0.00
2018-06-08T00:27:22.124Z,0.00
2018-06-08T00:28:22.117Z,0.00
2018-06-08T00:29:22.118Z,0.00
2018-06-08T00:30:22.121Z,0.00
2018-06-08T00:31:22.121Z,0.00
2018-06-08T00:32:22.120Z,0.00
2018-06-08T00:33:22.155Z,0.00
2018-06-08T00:34:22.122Z,0.00
2018-06-08T00:35:22.125Z,0.00
2018-06-08T00:36:22.127Z,0.00
2018-06-08T00:37:22.122Z,0.00
2018-06-08T00:38:22.127Z,0.00
2018-06-08T00:39:22.128Z,0.00
2018-06-08T00:40:22.124Z,0.00
2018-06-08T00:41:22.130Z,0.00
2018-06-08T00:42:22.127Z,0.00
2018-06-08T00:43:22.128Z,0.00
2018-06-08T00:44:22.128Z,0.00
2018-06-08T00:45:22.128Z,0.00
2018-06-08T00:46:22.135Z,0.00
2018-06-08T00:47:22.129Z,0.00
2018-06-08T00:48:22.130Z,0.00
2018-06-08T00:49:22.130Z,0.00
2018-06-08T00:50:22.133Z,0.00
2018-06-08T00:51:22.135Z,0.00
2018-06-08T00:52:22.133Z,0.00
2018-06-08T00:53:22.138Z,0.00
2018-06-08T00:54:22.134Z,0.00
2018-06-08T00:55:22.142Z,0.00
2018-06-08T00:56:22.139Z,0.00
2018-06-08T00:57:22.137Z,0.00
2018-06-08T00:58:22.137Z,0.00
2018-06-08T00:59:22.139Z,0.00
2018-06-08T01:00:22.141Z,0.00
2018-06-08T01:01:22.142Z,0.00
2018-06-08T01:02:22.138Z,0.00
2018-06-08T01:03:22.139Z,0.00
2018-06-08T01:04:22.144Z,0.00
2018-06-08T01:05:22.143Z,0.00
2018-06-08T01:06:22.142Z,0.00
2018-06-08T01:07:22.141Z,0.00
2018-06-08T01:08:22.143Z,0.00
2018-06-08T01:09:22.143Z,0.00
2018-06-08T01:10:22.145Z,0.00
2018-06-08T01:11:22.144Z,0.00
2018-06-08T01:12:22.142Z,0.00
2018-06-08T01:13:22.144Z,0.00
2018-06-08T01:14:22.146Z,0.00
2018-06-08T01:15:22.149Z,0.00
2018-06-08T01:16:22.146Z,0.00
2018-06-08T01:17:22.153Z,0.00
2018-06-08T01:18:22.148Z,0.00
2018-06-08T01:19:22.147Z,0.00
2018-06-08T01:20:22.148Z,0.00
2018-06-08T01:21:22.148Z,0.00
2018-06-08T01:22:22.152Z,0.00
2018-06-08T01:23:22.149Z,0.00
2018-06-08T01:24:22.151Z,0.00
2018-06-08T01:25:22.150Z,0.00
2018-06-08T01:26:22.151Z,0.00
2018-06-08T01:27:22.150Z,0.00
2018-06-08T01:28:22.151Z,0.00
2018-06-08T01:29:22.152Z,0.00
2018-06-08T01:30:22.154Z,0.00
2018-06-08T01:31:22.159Z,0.00
2018-06-08T01:32:22.153Z,0.00
2018-06-08T01:33:22.153Z,0.00
2018-06-08T01:34:22.153Z,0.00
2018-06-08T01:35:22.155Z,0.00
2018-06-08T01:36:22.156Z,0.00
2018-06-08T01:37:22.161Z,0.00
2018-06-08T01:38:22.157Z,0.00
2018-06-08T01:39:22.156Z,0.00
2018-06-08T01:40:22.156Z,0.00
2018-06-08T01:41:22.156Z,0.00
2018-06-08T01:42:22.155Z,0.00
2018-06-08T01:43:22.155Z,0.00
2018-06-08T01:44:22.157Z,0.00
2018-06-08T01:45:22.157Z,0.00
2018-06-08T01:46:22.158Z,0.00
2018-06-08T01:47:22.156Z,0.00
2018-06-08T01:48:22.162Z,0.00
2018-06-08T01:49:22.157Z,0.00
2018-06-08T01:50:22.159Z,0.00
2018-06-08T01:51:22.156Z,0.00
2018-06-08T01:52:22.165Z,0.00
2018-06-08T01:53:22.159Z,0.00
2018-06-08T01:54:22.162Z,0.00
2018-06-08T01:55:22.158Z,0.00
2018-06-08T01:56:22.159Z,0.00
2018-06-08T01:57:22.161Z,0.00
2018-06-08T01:58:22.160Z,0.00
2018-06-08T01:59:22.161Z,0.00
2018-06-08T02:00:22.160Z,0.00
2018-06-08T02:01:22.161Z,4.00
2018-06-08T02:02:22.161Z,4.00
2018-06-08T02:03:22.161Z,0.00
2018-06-08T02:04:22.161Z,0.00
2018-06-08T02:05:22.164Z,4.00
2018-06-08T02:06:22.161Z,4.00
2018-06-08T02:07:22.163Z,0.00
2018-06-08T02:08:22.161Z,4.00
2018-06-08T02:09:22.162Z,4.00
2018-06-08T02:10:22.199Z,4.00
2018-06-08T02:11:22.161Z,8.00
2018-06-08T02:12:22.161Z,4.00
2018-06-08T02:13:22.162Z,8.00
2018-06-08T02:14:22.160Z,8.00
2018-06-08T02:15:22.157Z,8.00
2018-06-08T02:16:22.162Z,8.00
2018-06-08T02:17:22.160Z,12.00
2018-06-08T02:18:22.161Z,12.00
2018-06-08T02:19:22.166Z,16.00
2018-06-08T02:20:22.161Z,12.00
2018-06-08T02:21:22.161Z,16.00
2018-06-08T02:22:22.162Z,16.00
2018-06-08T02:23:22.160Z,16.00
2018-06-08T02:24:22.162Z,20.00
2018-06-08T02:25:22.161Z,24.00
2018-06-08T02:26:22.162Z,24.00
2018-06-08T02:27:22.161Z,28.00
2018-06-08T02:28:22.161Z,28.00
2018-06-08T02:29:22.160Z,36.00
2018-06-08T02:30:22.166Z,40.00
2018-06-08T02:31:22.159Z,40.00
2018-06-08T02:32:22.162Z,44.00
2018-06-08T02:33:22.161Z,48.00
2018-06-08T02:34:22.167Z,56.00
2018-06-08T02:35:22.161Z,60.00
2018-06-08T02:36:22.162Z,64.00
2018-06-08T02:37:22.163Z,76.00
2018-06-08T02:38:22.165Z,80.00
2018-06-08T02:39:22.162Z,84.00
2018-06-08T02:40:22.161Z,92.00
2018-06-08T02:41:22.160Z,100.00
2018-06-08T02:42:22.163Z,108.00
2018-06-08T02:43:22.161Z,116.00
2018-06-08T02:44:22.164Z,124.00
2018-06-08T02:45:22.161Z,132.00
2018-06-08T02:46:22.163Z,144.00
2018-06-08T02:47:22.162Z,152.00
2018-06-08T02:48:22.160Z,164.00
2018-06-08T02:49:22.165Z,172.00
2018-06-08T02:50:22.163Z,188.00
2018-06-08T02:51:22.161Z,196.00
2018-06-08T02:52:22.161Z,208.00
2018-06-08T02:53:22.167Z,220.00
2018-06-08T02:54:22.162Z,236.00
2018-06-08T02:55:22.161Z,248.00
2018-06-08T02:56:22.162Z,264.00
2018-06-08T02:57:22.166Z,276.00
2018-06-08T02:58:22.161Z,292.00
2018-06-08T02:59:22.159Z,308.00
2018-06-08T03:00:22.160Z,324.00
2018-06-08T03:01:22.156Z,344.00
2018-06-08T03:02:22.160Z,360.00
2018-06-08T03:03:22.161Z,376.00
2018-06-08T03:04:22.163Z,396.00
2018-06-08T03:05:22.211Z,412.00
2018-06-08T03:06:22.160Z,432.00
2018-06-08T03:07:22.160Z,452.00
2018-06-08T03:08:22.160Z,476.00
2018-06-08T03:09:22.159Z,496.00
2018-06-08T03:10:22.159Z,516.00
2018-06-08T03:11:22.158Z,540.00
2018-06-08T03:12:22.161Z,564.00
2018-06-08T03:13:22.160Z,588.00
2018-06-08T03:14:22.156Z,612.00
2018-06-08T03:15:22.158Z,636.00
2018-06-08T03:16:22.160Z,660.00
2018-06-08T03:17:22.158Z,684.00
2018-06-08T03:18:22.160Z,708.00
2018-06-08T03:19:22.160Z,732.00
2018-06-08T03:20:22.158Z,760.00
2018-06-08T03:21:22.158Z,788.00
2018-06-08T03:22:22.158Z,820.00
2018-06-08T03:23:22.159Z,860.00
2018-06-08T03:24:22.158Z,916.00
2018-06-08T03:25:22.164Z,992.00
2018-06-08T03:26:22.158Z,1140.00
2018-06-08T03:27:22.157Z,1352.00
2018-06-08T03:28:22.157Z,1532.00
2018-06-08T03:29:22.157Z,1616.00
2018-06-08T03:30:22.157Z,1676.00
2018-06-08T03:31:22.157Z,1736.00
2018-06-08T03:32:22.178Z,1792.00
2018-06-08T03:33:22.155Z,1852.00
2018-06-08T03:34:22.157Z,1916.00
2018-06-08T03:35:22.160Z,1972.00
2018-06-08T03:36:22.159Z,2036.00
2018-06-08T03:37:22.159Z,2108.00
2018-06-08T03:38:22.160Z,2184.00
2018-06-08T03:39:22.163Z,2232.00
2018-06-08T03:40:22.159Z,2300.00
2018-06-08T03:41:22.157Z,2376.00
2018-06-08T03:42:22.157Z,2428.00
2018-06-08T03:43:22.158Z,2488.00
2018-06-08T03:44:22.158Z,2564.00
2018-06-08T03:45:22.157Z,2628.00
2018-06-08T03:46:22.159Z,2712.00
2018-06-08T03:47:22.157Z,2796.00
2018-06-08T03:48:22.159Z,2868.00
2018-06-08T03:49:22.158Z,2952.00
2018-06-08T03:50:22.161Z,3008.00
2018-06-08T03:51:22.161Z,3084.00
2018-06-08T03:52:22.164Z,3148.00
2018-06-08T03:53:22.162Z,3212.00
2018-06-08T03:54:22.163Z,3280.00
2018-06-08T03:55:22.163Z,3344.00
2018-06-08T03:56:22.165Z,3404.00
2018-06-08T03:57:22.165Z,3476.00
2018-06-08T03:58:22.167Z,3536.00
2018-06-08T03:59:22.167Z,3592.00
2018-06-08T04:00:22.169Z,3636.00
2018-06-08T04:01:22.168Z,3672.00
2018-06-08T04:02:22.216Z,3732.00
2018-06-08T04:03:22.170Z,3804.00
2018-06-08T04:04:22.172Z,3888.00
2018-06-08T04:05:22.174Z,3964.00
2018-06-08T04:06:22.173Z,4012.00
2018-06-08T04:07:22.175Z,4068.00
2018-06-08T04:08:22.175Z,4144.00
2018-06-08T04:09:22.177Z,4208.00
2018-06-08T04:10:22.179Z,4284.00
2018-06-08T04:11:22.178Z,4352.00
2018-06-08T04:12:22.187Z,4384.00
2018-06-08T04:13:22.183Z,4420.00
2018-06-08T04:14:22.184Z,4472.00
2018-06-08T04:15:22.187Z,4544.00
2018-06-08T04:16:22.186Z,4584.00
2018-06-08T04:17:22.192Z,4660.00
2018-06-08T04:18:22.190Z,4696.00
2018-06-08T04:19:22.191Z,4740.00
2018-06-08T04:20:22.193Z,4796.00
2018-06-08T04:21:22.193Z,4848.00
2018-06-08T04:22:22.191Z,4908.00
2018-06-08T04:23:22.195Z,4968.00
2018-06-08T04:24:22.199Z,5012.00
2018-06-08T04:25:22.200Z,5036.00
2018-06-08T04:26:22.202Z,5048.00
2018-06-08T04:27:22.203Z,5064.00
2018-06-08T04:28:22.206Z,5112.00
2018-06-08T04:29:22.207Z,5208.00
2018-06-08T04:30:22.209Z,5272.00
2018-06-08T04:31:22.210Z,5288.00
2018-06-08T04:32:22.218Z,5304.00
2018-06-08T04:33:22.213Z,5340.00
2018-06-08T04:34:22.221Z,5380.00
2018-06-08T04:35:22.211Z,5420.00
2018-06-08T04:36:22.219Z,5468.00
2018-06-08T04:37:22.222Z,5496.00
2018-06-08T04:38:22.224Z,5540.00
2018-06-08T04:39:22.225Z,5580.00
2018-06-08T04:40:22.230Z,5628.00
2018-06-08T04:41:22.230Z,5660.00
2018-06-08T04:42:22.231Z,5708.00
2018-06-08T04:43:22.227Z,5748.00
2018-06-08T04:44:22.234Z,5800.00
2018-06-08T04:45:22.236Z,5860.00
2018-06-08T04:46:22.241Z,5912.00
2018-06-08T04:47:22.240Z,5968.00
2018-06-08T04:48:22.249Z,6024.00
2018-06-08T04:49:22.247Z,6048.00
2018-06-08T04:50:22.245Z,6068.00
2018-06-08T04:51:22.249Z,6108.00
2018-06-08T04:52:22.256Z,6160.00
2018-06-08T04:53:22.253Z,6180.00
2018-06-08T04:54:22.256Z,6220.00
2018-06-08T04:55:22.257Z,6244.00
2018-06-08T04:56:22.262Z,6280.00
2018-06-08T04:57:22.261Z,6316.00
2018-06-08T04:58:22.266Z,6336.00
2018-06-08T04:59:22.272Z,6364.00
2018-06-08T05:00:22.268Z,6400.00
2018-06-08T05:01:22.307Z,6440.00
2018-06-08T05:02:22.273Z,6484.00
2018-06-08T05:03:22.272Z,6496.00
2018-06-08T05:04:22.277Z,6516.00
2018-06-08T05:05:22.281Z,6536.00
2018-06-08T05:06:22.283Z,6564.00
2018-06-08T05:07:22.284Z,6584.00
2018-06-08T05:08:22.287Z,6624.00
2018-06-08T05:09:22.291Z,6644.00
2018-06-08T05:10:22.295Z,6640.00
2018-06-08T05:11:22.299Z,6648.00
2018-06-08T05:12:22.301Z,6680.00
2018-06-08T05:13:22.300Z,6724.00
2018-06-08T05:14:22.303Z,6732.00
2018-06-08T05:15:22.306Z,6732.00
2018-06-08T05:16:22.308Z,6760.00
2018-06-08T05:17:22.311Z,6784.00
2018-06-08T05:18:22.313Z,6792.00
2018-06-08T05:19:22.315Z,6804.00
2018-06-08T05:20:22.323Z,6792.00
2018-06-08T05:21:22.322Z,6824.00
2018-06-08T05:22:22.325Z,6840.00
2018-06-08T05:23:22.325Z,6856.00
2018-06-08T05:24:22.335Z,6844.00
2018-06-08T05:25:22.332Z,6840.00
2018-06-08T05:26:22.339Z,6856.00
2018-06-08T05:27:22.340Z,6868.00
2018-06-08T05:28:22.344Z,6856.00
2018-06-08T05:29:22.345Z,6872.00
2018-06-08T05:30:22.363Z,6896.00
2018-06-08T05:31:22.352Z,6908.00
2018-06-08T05:32:22.356Z,6924.00
2018-06-08T05:33:22.359Z,6948.00
2018-06-08T05:34:22.362Z,6968.00
2018-06-08T05:35:22.367Z,6992.00
2018-06-08T05:36:22.372Z,7000.00
2018-06-08T05:37:22.417Z,7024.00
2018-06-08T05:38:22.380Z,7032.00
2018-06-08T05:39:22.379Z,7044.00
2018-06-08T05:40:22.383Z,7056.00
2018-06-08T05:41:22.387Z,7056.00
2018-06-08T05:42:22.392Z,7072.00
2018-06-08T05:43:22.396Z,7068.00
2018-06-08T05:44:22.398Z,7060.00
2018-06-08T05:45:22.403Z,7076.00
2018-06-08T05:46:22.409Z,7084.00
2018-06-08T05:47:22.417Z,7104.00
2018-06-08T05:48:22.461Z,7108.00
2018-06-08T05:49:22.424Z,7116.00
2018-06-08T05:50:22.426Z,7120.00
2018-06-08T05:51:22.429Z,7108.00
2018-06-08T05:52:22.434Z,7096.00
2018-06-08T05:53:22.438Z,7072.00
2018-06-08T05:54:22.444Z,7092.00
2018-06-08T05:55:22.444Z,7100.00
2018-06-08T05:56:22.452Z,7088.00
2018-06-08T05:57:22.457Z,7068.00
2018-06-08T05:58:22.460Z,7104.00
2018-06-08T05:59:22.465Z,7112.00
2018-06-08T06:00:22.471Z,7132.00
2018-06-08T06:01:22.479Z,7152.00
2018-06-08T06:02:22.480Z,7156.00
2018-06-08T06:03:22.484Z,7152.00
2018-06-08T06:04:22.489Z,7144.00
2018-06-08T06:05:22.493Z,7152.00
2018-06-08T06:06:22.499Z,7132.00
2018-06-08T06:07:22.503Z,7132.00
2018-06-08T06:08:22.507Z,7124.00
2018-06-08T06:09:22.514Z,7108.00
2018-06-08T06:10:22.520Z,7124.00
2018-06-08T06:11:22.523Z,7104.00
2018-06-08T06:12:22.528Z,7152.00
2018-06-08T06:13:22.530Z,7172.00
2018-06-08T06:14:22.538Z,7192.00
2018-06-08T06:15:22.543Z,7208.00
2018-06-08T06:16:22.548Z,7208.00
2018-06-08T06:17:22.552Z,7204.00
2018-06-08T06:18:22.559Z,7212.00
2018-06-08T06:19:22.563Z,7220.00
2018-06-08T06:20:22.607Z,7224.00
2018-06-08T06:21:22.638Z,7232.00
2018-06-08T06:22:22.581Z,7260.00
2018-06-08T06:23:22.602Z,7260.00
2018-06-08T06:24:22.590Z,7264.00
2018-06-08T06:25:22.602Z,7272.00
2018-06-08T06:26:22.606Z,7312.00
2018-06-08T06:27:22.609Z,7332.00
2018-06-08T06:28:22.616Z,7368.00
2018-06-08T06:29:22.627Z,7400.00
2018-06-08T06:30:22.626Z,7428.00
2018-06-08T06:31:22.632Z,7468.00
2018-06-08T06:32:22.684Z,7516.00
2018-06-08T06:33:22.645Z,7568.00
2018-06-08T06:34:22.651Z,7604.00
2018-06-08T06:35:22.659Z,7640.00
2018-06-08T06:36:22.665Z,7684.00
2018-06-08T06:37:22.672Z,7728.00
2018-06-08T06:38:22.684Z,7792.00
2018-06-08T06:39:22.687Z,7840.00
2018-06-08T06:40:22.688Z,7924.00
2018-06-08T06:41:22.699Z,8020.00
2018-06-08T06:42:22.706Z,8112.00
2018-06-08T06:43:22.712Z,8196.00
2018-06-08T06:44:22.721Z,8268.00
2018-06-08T06:45:22.728Z,8372.00
2018-06-08T06:46:22.733Z,8452.00
2018-06-08T06:47:22.742Z,8532.00
2018-06-08T06:48:22.749Z,8668.00
2018-06-08T06:49:22.754Z,8856.00
2018-06-08T06:50:22.763Z,9312.00
2018-06-08T06:51:22.763Z,13160.00
2018-06-08T06:52:22.769Z,23744.00
2018-06-08T06:53:22.780Z,34272.00
2018-06-08T06:54:22.786Z,37024.00
2018-06-08T06:55:22.793Z,37600.00
2018-06-08T06:56:22.801Z,39712.00
2018-06-08T06:57:22.809Z,39520.00
2018-06-08T06:58:22.815Z,39360.00
2018-06-08T06:59:22.827Z,40960.00
2018-06-08T07:00:22.835Z,39968.00
2018-06-08T07:01:22.840Z,40096.00
2018-06-08T07:02:22.848Z,42144.00
2018-06-08T07:03:22.857Z,43872.00
2018-06-08T07:04:22.879Z,41472.00
2018-06-08T07:05:22.876Z,43136.00
2018-06-08T07:06:22.882Z,44736.00
2018-06-08T07:07:22.889Z,42944.00
2018-06-08T07:08:22.899Z,44160.00
2018-06-08T07:09:22.933Z,44000.00
2018-06-08T07:10:22.916Z,44736.00
2018-06-08T07:11:22.926Z,47584.00
2018-06-08T07:12:22.934Z,48000.00
2018-06-08T07:13:22.942Z,47328.00
2018-06-08T07:14:22.956Z,47872.00
2018-06-08T07:15:22.962Z,49696.00
2018-06-08T07:16:22.969Z,48480.00
2018-06-08T07:17:22.980Z,49312.00
2018-06-08T07:18:22.990Z,49504.00
2018-06-08T07:19:22.999Z,45920.00
2018-06-08T07:20:23.012Z,48064.00
2018-06-08T07:21:23.019Z,52160.00
2018-06-08T07:22:23.029Z,51968.00
2018-06-08T07:23:23.038Z,51968.00
2018-06-08T07:24:23.049Z,54400.00
2018-06-08T07:25:23.056Z,52576.00
2018-06-08T07:26:23.065Z,47968.00
2018-06-08T07:27:23.076Z,46880.00
2018-06-08T07:28:23.083Z,45952.00
2018-06-08T07:29:23.093Z,41888.00
2018-06-08T07:30:23.107Z,41984.00
2018-06-08T07:31:23.112Z,49088.00
2018-06-08T07:32:23.120Z,50880.00
2018-06-08T07:33:23.131Z,51296.00
2018-06-08T07:34:23.142Z,56992.00
2018-06-08T07:35:23.149Z,59840.00
2018-06-08T07:36:23.158Z,59904.00
2018-06-08T07:37:23.169Z,58176.00
2018-06-08T07:38:23.181Z,58208.00
2018-06-08T07:39:23.194Z,62464.00
2018-06-08T07:40:23.199Z,63936.00
2018-06-08T07:41:23.209Z,62592.00
2018-06-08T07:42:23.218Z,58496.00
2018-06-08T07:43:23.227Z,55584.00
2018-06-08T07:44:23.236Z,56384.00
2018-06-08T07:45:23.250Z,58464.00
2018-06-08T07:46:23.257Z,60128.00
2018-06-08T07:47:23.265Z,59456.00
2018-06-08T07:48:23.274Z,59424.00
2018-06-08T07:49:23.285Z,59968.00
2018-06-08T07:50:23.295Z,60256.00
2018-06-08T07:51:23.305Z,64416.00
2018-06-08T07:52:23.312Z,67712.00
2018-06-08T07:53:23.324Z,64960.00
2018-06-08T07:54:23.334Z,61728.00
2018-06-08T07:55:23.345Z,64640.00
2018-06-08T07:56:23.355Z,67872.00
2018-06-08T07:57:23.366Z,67936.00
2018-06-08T07:58:23.375Z,66880.00
2018-06-08T07:59:23.389Z,68128.00
2018-06-08T08:00:23.404Z,67520.00
2018-06-08T08:01:23.403Z,66112.00
2018-06-08T08:02:23.415Z,68864.00
2018-06-08T08:03:23.425Z,70400.00
2018-06-08T08:04:23.439Z,69696.00
2018-06-08T08:05:23.446Z,69632.00
2018-06-08T08:06:23.455Z,71104.00
2018-06-08T08:07:23.463Z,69344.00
2018-06-08T08:08:23.538Z,67616.00
2018-06-08T08:09:23.493Z,70720.00
2018-06-08T08:10:23.497Z,73664.00
2018-06-08T08:11:23.505Z,68192.00
2018-06-08T08:12:23.517Z,63936.00
2018-06-08T08:13:23.526Z,66912.00
2018-06-08T08:14:23.718Z,73056.00
2018-06-08T08:15:23.606Z,72512.00
2018-06-08T08:16:23.558Z,67392.00
2018-06-08T08:17:23.569Z,66048.00
2018-06-08T08:18:23.579Z,71328.00
2018-06-08T08:19:23.624Z,72992.00
2018-06-08T08:20:23.599Z,68864.00
2018-06-08T08:21:23.610Z,74208.00
2018-06-08T08:22:23.623Z,78336.00
2018-06-08T08:23:23.630Z,73728.00
2018-06-08T08:24:23.794Z,70400.00
2018-06-08T08:25:23.653Z,75936.00
2018-06-08T08:26:23.663Z,79328.00
2018-06-08T08:27:23.842Z,69888.00
2018-06-08T08:28:23.687Z,63776.00
2018-06-08T08:29:23.695Z,67168.00
2018-06-08T08:30:23.707Z,69088.00
2018-06-08T08:31:23.716Z,68448.00
2018-06-08T08:32:23.728Z,73408.00
2018-06-08T08:33:23.740Z,78368.00
2018-06-08T08:34:23.752Z,72256.00
2018-06-08T08:35:23.764Z,63232.00
2018-06-08T08:36:23.774Z,69472.00
2018-06-08T08:37:23.857Z,83488.00
2018-06-08T08:38:23.799Z,85440.00
2018-06-08T08:39:23.809Z,80704.00
2018-06-08T08:40:23.874Z,81120.00
2018-06-08T08:41:23.833Z,80672.00
2018-06-08T08:42:23.877Z,79520.00
2018-06-08T08:43:23.858Z,80224.00
2018-06-08T08:44:23.870Z,80160.00
2018-06-08T08:45:23.884Z,79488.00
2018-06-08T08:46:23.896Z,83776.00
2018-06-08T08:47:23.907Z,83488.00
2018-06-08T08:48:23.919Z,77248.00
2018-06-08T08:49:23.932Z,75872.00
2018-06-08T08:50:23.944Z,79648.00
2018-06-08T08:51:23.968Z,79648.00
2018-06-08T08:52:23.970Z,77536.00
2018-06-08T08:53:23.982Z,78208.00
2018-06-08T08:54:23.997Z,80672.00
2018-06-08T08:55:24.007Z,81056.00
2018-06-08T08:56:24.021Z,69152.00
2018-06-08T08:57:24.032Z,24800.00
2018-06-08T08:58:24.065Z,5072.00
2018-06-08T08:59:24.059Z,4948.00
2018-06-08T09:00:24.071Z,4880.00
2018-06-08T09:01:24.080Z,4544.00
2018-06-08T09:02:24.093Z,4252.00
2018-06-08T09:03:24.104Z,4144.00
2018-06-08T09:04:24.115Z,4060.00
2018-06-08T09:05:24.129Z,4008.00
2018-06-08T09:06:24.154Z,3952.00
2018-06-08T09:07:24.150Z,3896.00
2018-06-08T09:08:24.156Z,3868.00
2018-06-08T09:09:24.166Z,3836.00
2018-06-08T09:10:24.176Z,3784.00
2018-06-08T09:11:24.238Z,3744.00
2018-06-08T09:12:24.197Z,3704.00
2018-06-08T09:13:24.203Z,3672.00
2018-06-08T09:14:24.213Z,3636.00
2018-06-08T09:15:24.225Z,3608.00
2018-06-08T09:16:24.228Z,3580.00
2018-06-08T09:17:24.238Z,3548.00
2018-06-08T09:18:24.250Z,3512.00
2018-06-08T09:19:24.256Z,3496.00
2018-06-08T09:20:24.262Z,3468.00
2018-06-08T09:21:24.270Z,3440.00
2018-06-08T09:22:24.277Z,3392.00
2018-06-08T09:23:24.284Z,3348.00
2018-06-08T09:24:24.295Z,3336.00
2018-06-08T09:25:24.303Z,3332.00
2018-06-08T09:26:24.311Z,3320.00
2018-06-08T09:27:24.349Z,3308.00
2018-06-08T09:28:24.321Z,3288.00
2018-06-08T09:29:24.327Z,3252.00
2018-06-08T09:30:24.335Z,3208.00
2018-06-08T09:31:24.341Z,3184.00
2018-06-08T09:32:24.350Z,3180.00
2018-06-08T09:33:24.358Z,3156.00
2018-06-08T09:34:24.365Z,3132.00
2018-06-08T09:35:24.371Z,3120.00
2018-06-08T09:36:24.379Z,3116.00
2018-06-08T09:37:24.386Z,3100.00
2018-06-08T09:38:24.392Z,3080.00
2018-06-08T09:39:24.398Z,3064.00
2018-06-08T09:40:24.405Z,3052.00
2018-06-08T09:41:24.417Z,3024.00
2018-06-08T09:42:24.418Z,2992.00
2018-06-08T09:43:24.428Z,2964.00
2018-06-08T09:44:24.489Z,2948.00
2018-06-08T09:45:24.439Z,2944.00
2018-06-08T09:46:24.585Z,2932.00
2018-06-08T09:47:24.449Z,2936.00
2018-06-08T09:48:24.458Z,2936.00
2018-06-08T09:49:24.505Z,2944.00
2018-06-08T09:50:24.863Z,2936.00
2018-06-08T09:51:24.477Z,2928.00
2018-06-08T09:52:24.486Z,2924.00
2018-06-08T09:53:24.494Z,2924.00
2018-06-08T09:54:24.500Z,2916.00
2018-06-08T09:55:24.578Z,2908.00
2018-06-08T09:56:24.511Z,2896.00
2018-06-08T09:57:24.518Z,2884.00
2018-06-08T09:58:24.524Z,2880.00
2018-06-08T09:59:24.530Z,2892.00
2018-06-08T10:00:24.537Z,2908.00
2018-06-08T10:01:24.543Z,2896.00
2018-06-08T10:02:24.550Z,2872.00
2018-06-08T10:03:24.555Z,2852.00
2018-06-08T10:04:24.568Z,2840.00
2018-06-08T10:05:24.601Z,2840.00
2018-06-08T10:06:24.583Z,2856.00
2018-06-08T10:07:24.581Z,2848.00
2018-06-08T10:08:24.590Z,2824.00
2018-06-08T10:09:24.599Z,2808.00
2018-06-08T10:10:24.606Z,2804.00
2018-06-08T10:11:24.611Z,2796.00
2018-06-08T10:12:24.622Z,2784.00
2018-06-08T10:13:24.624Z,2772.00
2018-06-08T10:14:24.629Z,2744.00
2018-06-08T10:15:24.633Z,2724.00
2018-06-08T10:16:24.642Z,2700.00
2018-06-08T10:17:24.650Z,2692.00
2018-06-08T10:18:24.655Z,2692.00
2018-06-08T10:19:24.657Z,2700.00
2018-06-08T10:20:24.665Z,2684.00
2018-06-08T10:21:24.673Z,2672.00
2018-06-08T10:22:24.682Z,2656.00
2018-06-08T10:23:24.683Z,2644.00
2018-06-08T10:24:24.697Z,2632.00
2018-06-08T10:25:24.698Z,2608.00
2018-06-08T10:26:24.704Z,2592.00
2018-06-08T10:27:24.713Z,2568.00
2018-06-08T10:28:24.745Z,2552.00
2018-06-08T10:29:24.723Z,2540.00
2018-06-08T10:30:24.729Z,2524.00
2018-06-08T10:31:24.731Z,2532.00
2018-06-08T10:32:24.742Z,2552.00
2018-06-08T10:33:24.751Z,2572.00
2018-06-08T10:34:24.751Z,2588.00
2018-06-08T10:35:24.760Z,2584.00
2018-06-08T10:36:24.762Z,2564.00
2018-06-08T10:37:24.772Z,2540.00
2018-06-08T10:38:24.776Z,2508.00
2018-06-08T10:39:24.785Z,2496.00
2018-06-08T10:40:24.786Z,2496.00
2018-06-08T10:41:24.792Z,2504.00
2018-06-08T10:42:24.799Z,2504.00
2018-06-08T10:43:24.844Z,2492.00
2018-06-08T10:44:24.815Z,2488.00
2018-06-08T10:45:24.817Z,2476.00
2018-06-08T10:46:24.822Z,2472.00
2018-06-08T10:47:24.834Z,2480.00
2018-06-08T10:48:24.841Z,2472.00
2018-06-08T10:49:24.846Z,2460.00
2018-06-08T10:50:24.852Z,2452.00
2018-06-08T10:51:24.854Z,2452.00
2018-06-08T10:52:24.865Z,2444.00
2018-06-08T10:53:24.865Z,2448.00
2018-06-08T10:54:24.878Z,2448.00
2018-06-08T10:55:24.881Z,2440.00
2018-06-08T10:56:24.890Z,2420.00
2018-06-08T10:57:24.896Z,2392.00
2018-06-08T10:58:24.897Z,2380.00
2018-06-08T10:59:24.902Z,2360.00
2018-06-08T11:00:24.908Z,2352.00
2018-06-08T11:01:24.920Z,2344.00
2018-06-08T11:02:24.923Z,2340.00
2018-06-08T11:03:24.926Z,2332.00
2018-06-08T11:04:24.932Z,2332.00
2018-06-08T11:05:24.938Z,2340.00
2018-06-08T11:06:24.949Z,2332.00
2018-06-08T11:07:24.950Z,2328.00
2018-06-08T11:08:24.958Z,2324.00
2018-06-08T11:09:24.964Z,2320.00
2018-06-08T11:10:24.970Z,2332.00
2018-06-08T11:11:24.976Z,2336.00
2018-06-08T11:12:25.023Z,2336.00
2018-06-08T11:13:24.984Z,2340.00
2018-06-08T11:14:25.044Z,2344.00
2018-06-08T11:15:25.172Z,2328.00
2018-06-08T11:16:25.006Z,2308.00
2018-06-08T11:17:25.096Z,2308.00
2018-06-08T11:18:25.021Z,2300.00
2018-06-08T11:19:25.024Z,2288.00
2018-06-08T11:20:25.031Z,2280.00
2018-06-08T11:21:25.038Z,2268.00
2018-06-08T11:22:25.044Z,2260.00
2018-06-08T11:23:25.045Z,2252.00
2018-06-08T11:24:25.056Z,2248.00
2018-06-08T11:25:25.063Z,2252.00
2018-06-08T11:26:25.069Z,2244.00
2018-06-08T11:27:25.072Z,2244.00
2018-06-08T11:28:25.077Z,2240.00
2018-06-08T11:29:25.087Z,2228.00
2018-06-08T11:30:25.094Z,2220.00
2018-06-08T11:31:25.098Z,2224.00
2018-06-08T11:32:25.108Z,2220.00
2018-06-08T11:33:25.114Z,2216.00
2018-06-08T11:34:25.118Z,2204.00
2018-06-08T11:35:25.122Z,2196.00
2018-06-08T11:36:25.131Z,2188.00
2018-06-08T11:37:25.137Z,2192.00
2018-06-08T11:38:25.147Z,2188.00
2018-06-08T11:39:25.167Z,2188.00
2018-06-08T11:40:25.156Z,2184.00
2018-06-08T11:41:25.159Z,2180.00
2018-06-08T11:42:25.169Z,2184.00
2018-06-08T11:43:25.173Z,2184.00
2018-06-08T11:44:25.179Z,2184.00
2018-06-08T11:45:25.188Z,2188.00
2018-06-08T11:46:25.197Z,2176.00
2018-06-08T11:47:25.199Z,2180.00
2018-06-08T11:48:25.204Z,2176.00
2018-06-08T11:49:25.212Z,2172.00
2018-06-08T11:50:25.368Z,2168.00
2018-06-08T11:51:25.229Z,2160.00
2018-06-08T11:52:25.232Z,2156.00
2018-06-08T11:53:25.244Z,2156.00
2018-06-08T11:54:25.245Z,2152.00
2018-06-08T11:55:25.249Z,2148.00
2018-06-08T11:56:25.258Z,2152.00
2018-06-08T11:57:25.264Z,2148.00
2018-06-08T11:58:25.272Z,2144.00
2018-06-08T11:59:25.279Z,2144.00
2018-06-08T12:00:25.286Z,2148.00
2018-06-08T12:01:25.294Z,2152.00
2018-06-08T12:02:25.297Z,2148.00
2018-06-08T12:03:25.304Z,2140.00
2018-06-08T12:04:25.307Z,2132.00
2018-06-08T12:05:25.316Z,2136.00
2018-06-08T12:06:25.322Z,2128.00
2018-06-08T12:07:25.328Z,2128.00
2018-06-08T12:08:25.340Z,2128.00
2018-06-08T12:09:25.337Z,2128.00
2018-06-08T12:10:25.348Z,2124.00
2018-06-08T12:11:25.351Z,2124.00
2018-06-08T12:12:25.356Z,2124.00
2018-06-08T12:13:25.631Z,2116.00
2018-06-08T12:14:25.372Z,2116.00
2018-06-08T12:15:25.372Z,2104.00
2018-06-08T12:16:25.385Z,2104.00
2018-06-08T12:17:25.391Z,2104.00